Time;durP1;ratioP1;P1;durP2;ratioP2;P2;SDS_P1;SDS_P2;PMS_P1;PMS_P2;Temp;Humidity;BMP_temperature;BMP_pressure;BME280_temperature;BME280_humidity;BME280_pressure;Samples;Min_cycle;Max_cycle;Signal;HPM_P1;HPM_P2
2022/01/20 00:02:09;;;;;;;14.48;4.53;;;7.20;77.10;;;;;;4988426;28;20435;-51
2022/01/20 00:04:45;;;;;;;14.80;4.22;;;7.10;77.00;;;;;;4970801;28;20047;-53
2022/01/20 00:23:15;;;;;;;16.73;4.95;;;7.10;77.30;;;;;;4980897;28;20046;-47
2022/01/20 00:26:27;;;;;;;15.35;3.38;;;7.10;77.10;;;;;;4940060;28;20443;-47
2022/01/20 00:28:58;;;;;;;21.13;4.80;;;7.10;77.00;;;;;;4972682;28;20089;-49
2022/01/20 00:31:41;;;;;;;13.85;3.97;;;7.10;77.10;;;;;;4979218;28;20447;-48
2022/01/20 00:34:13;;;;;;;14.80;4.15;;;7.10;77.00;;;;;;4965572;28;20036;-49
2022/01/20 00:39:28;;;;;;;16.45;4.30;;;7.00;77.00;;;;;;4969370;28;20051;-49
2022/01/20 00:41:55;;;;;;;19.30;4.68;;;7.00;77.20;;;;;;4969075;28;20144;-50
2022/01/20 00:44:24;;;;;;;16.92;4.55;;;7.00;77.30;;;;;;4968844;28;20047;-51
2022/01/20 00:46:51;;;;;;;14.35;4.25;;;7.00;77.40;;;;;;4978559;28;20109;-50
2022/01/20 00:49:19;;;;;;;14.15;4.40;;;7.00;77.40;;;;;;4972994;28;20145;-48
2022/01/20 00:51:46;;;;;;;11.48;3.67;;;7.00;77.30;;;;;;4965481;28;20047;-49
2022/01/20 00:54:18;;;;;;;16.02;3.78;;;7.00;77.30;;;;;;4986425;28;20053;-51
2022/01/20 00:56:44;;;;;;;12.50;3.85;;;6.90;77.20;;;;;;4984481;28;20588;-51
2022/01/20 00:59:13;;;;;;;12.82;3.78;;;6.90;77.20;;;;;;4992680;28;20165;-52
2022/01/20 01:01:41;;;;;;;14.00;3.85;;;6.90;77.30;;;;;;4980312;28;20041;-50
2022/01/20 01:04:08;;;;;;;12.35;4.07;;;6.90;77.20;;;;;;4980861;28;20671;-51
2022/01/20 01:06:55;;;;;;;10.18;3.83;;;6.90;77.20;;;;;;4968579;28;20051;-50
2022/01/20 01:09:23;;;;;;;9.93;3.58;;;6.90;77.20;;;;;;4975450;28;20046;-49
2022/01/20 01:11:52;;;;;;;19.13;4.55;;;6.90;77.20;;;;;;4970240;28;20038;-49
2022/01/20 01:14:21;;;;;;;15.00;3.25;;;6.90;77.30;;;;;;4980988;28;20086;-49
2022/01/20 01:22:21;;;;;;;12.93;4.18;;;6.90;77.90;;;;;;4974364;28;20137;-49
2022/01/20 01:24:51;;;;;;;11.40;3.60;;;6.90;77.90;;;;;;4972371;28;20042;-48
2022/01/20 01:27:20;;;;;;;14.85;4.47;;;7.00;77.90;;;;;;4966331;28;20055;-49
2022/01/20 01:32:17;;;;;;;14.25;4.20;;;7.00;77.80;;;;;;4971578;28;20043;-48
2022/01/20 01:34:52;;;;;;;12.35;3.65;;;7.10;77.80;;;;;;4989132;28;20051;-49
2022/01/20 01:40:06;;;;;;;9.00;2.65;;;7.10;77.60;;;;;;4967128;28;20118;-50
2022/01/20 01:42:45;;;;;;;16.42;4.22;;;7.10;77.50;;;;;;4985918;28;20145;-51
2022/01/20 01:45:33;;;;;;;16.15;4.43;;;7.10;77.40;;;;;;4987327;28;20101;-50
2022/01/20 01:48:01;;;;;;;14.10;4.30;;;7.20;78.00;;;;;;4973842;28;20043;-51
2022/01/20 01:50:28;;;;;;;13.57;4.15;;;7.20;77.30;;;;;;4987594;28;20051;-49
2022/01/20 01:52:57;;;;;;;12.55;4.05;;;7.20;77.20;;;;;;4982503;28;20049;-50
2022/01/20 01:55:24;;;;;;;15.77;5.82;;;7.20;77.20;;;;;;4990103;28;20053;-50
2022/01/20 01:57:52;;;;;;;10.40;3.75;;;7.20;77.10;;;;;;4983223;28;20038;-50
2022/01/20 02:00:21;;;;;;;12.40;3.88;;;7.20;77.10;;;;;;4985184;28;20081;-50
2022/01/20 02:02:55;;;;;;;9.70;2.90;;;7.20;77.10;;;;;;4984382;28;20129;-50
2022/01/20 02:05:36;;;;;;;10.95;2.33;;;7.20;77.10;;;;;;4986669;28;20420;-50
2022/01/20 02:18:58;;;;;;;13.48;2.92;;;7.30;76.40;;;;;;4979334;28;20046;-52
2022/01/20 02:21:52;;;;;;;13.60;2.53;;;7.30;76.20;;;;;;4989363;28;20043;-51
2022/01/20 02:24:23;;;;;;;11.00;2.63;;;7.30;76.00;;;;;;4983452;28;20042;-50
2022/01/20 02:26:50;;;;;;;14.80;3.50;;;7.30;76.00;;;;;;4981573;28;20038;-50
2022/01/20 02:29:22;;;;;;;7.90;2.17;;;7.20;75.90;;;;;;4974103;28;20096;-50
2022/01/20 02:31:58;;;;;;;8.15;2.60;;;7.20;76.00;;;;;;4981724;28;20042;-50
2022/01/20 02:34:29;;;;;;;10.73;2.58;;;7.20;76.00;;;;;;4990539;28;20082;-52
2022/01/20 02:37:00;;;;;;;13.95;2.50;;;7.10;76.00;;;;;;4980656;28;20039;-53
2022/01/20 02:44:54;;;;;;;11.70;2.30;;;7.10;76.00;;;;;;4979205;28;20093;-51
2022/01/20 02:47:26;;;;;;;11.77;2.97;;;7.10;76.00;;;;;;4996692;28;20053;-51
2022/01/20 02:49:53;;;;;;;11.82;2.30;;;7.00;76.00;;;;;;4984292;28;20057;-51
2022/01/20 02:52:20;;;;;;;10.77;2.35;;;7.00;76.00;;;;;;4986072;28;20055;-53
2022/01/20 02:54:48;;;;;;;9.13;2.28;;;6.90;76.00;;;;;;4979164;28;20097;-50
2022/01/20 02:57:14;;;;;;;12.82;2.47;;;6.90;76.10;;;;;;4980962;28;20050;-52
2022/01/20 02:59:41;;;;;;;10.68;2.10;;;6.90;76.20;;;;;;4986741;28;20042;-51
2022/01/20 03:02:09;;;;;;;8.30;2.38;;;6.90;76.40;;;;;;4972513;28;20027;-52
2022/01/20 03:04:38;;;;;;;10.85;3.22;;;6.90;76.60;;;;;;4964652;28;20046;-53
2022/01/20 03:07:18;;;;;;;12.88;2.58;;;6.90;76.70;;;;;;4985140;28;20053;-50
2022/01/20 03:09:45;;;;;;;8.02;2.45;;;6.90;76.80;;;;;;4977240;28;20049;-50
2022/01/20 03:12:13;;;;;;;10.20;2.25;;;7.00;76.90;;;;;;4971660;28;20495;-53
2022/01/20 03:14:40;;;;;;;13.95;3.00;;;6.90;76.80;;;;;;4983191;28;20046;-49
2022/01/20 03:17:08;;;;;;;7.85;2.53;;;7.00;76.90;;;;;;4983566;28;20046;-51
2022/01/20 03:19:35;;;;;;;10.98;2.65;;;7.00;76.90;;;;;;4976078;28;20046;-50
2022/01/20 03:22:02;;;;;;;10.07;2.78;;;7.00;76.90;;;;;;4970442;28;20058;-53
2022/01/20 03:24:31;;;;;;;8.70;2.10;;;7.00;76.90;;;;;;5006816;22;20021;-49
2022/01/20 03:26:59;;;;;;;6.28;2.03;;;7.00;76.90;;;;;;5009716;28;20040;-51
2022/01/20 03:29:26;;;;;;;5.78;1.88;;;7.10;77.00;;;;;;5027821;28;20050;-50
2022/01/20 03:31:52;;;;;;;5.60;2.00;;;7.10;77.00;;;;;;5019468;28;20042;-48
2022/01/20 03:34:21;;;;;;;8.50;2.58;;;7.10;76.90;;;;;;5029621;28;20045;-46
2022/01/20 03:36:52;;;;;;;13.23;2.88;;;7.10;76.90;;;;;;4990162;28;20061;-50
2022/01/20 03:39:24;;;;;;;7.75;2.75;;;7.10;76.70;;;;;;4998189;28;20042;-48
2022/01/20 03:41:51;;;;;;;9.60;2.40;;;7.10;76.60;;;;;;4993906;28;20038;-48
2022/01/20 03:44:26;;;;;;;5.47;1.85;;;7.10;76.40;;;;;;4995609;28;20089;-50
2022/01/20 03:46:53;;;;;;;9.43;2.78;;;7.10;76.40;;;;;;5007960;28;20049;-48
2022/01/20 03:52:06;;;;;;;6.05;2.38;;;7.10;76.20;;;;;;5007924;28;20525;-48
2022/01/20 03:54:33;;;;;;;7.57;2.17;;;7.10;76.30;;;;;;4990413;28;20058;-47
2022/01/20 03:57:21;;;;;;;8.18;2.22;;;7.10;76.40;;;;;;4989055;28;20046;-49
2022/01/20 03:59:54;;;;;;;10.30;2.63;;;7.10;76.50;;;;;;4985796;28;20049;-47
2022/01/20 04:02:40;;;;;;;4.45;2.13;;;7.10;76.40;;;;;;4999844;28;20049;-48
2022/01/20 04:05:27;;;;;;;5.40;2.75;;;7.10;76.20;;;;;;4996300;28;20049;-47
2022/01/20 04:08:17;;;;;;;9.70;2.42;;;7.10;76.00;;;;;;4982555;28;20097;-48
2022/01/20 04:10:44;;;;;;;8.77;2.95;;;7.10;75.90;;;;;;5000123;28;20046;-48
2022/01/20 04:13:11;;;;;;;4.70;2.15;;;7.00;75.70;;;;;;5001473;28;20036;-47
2022/01/20 04:15:40;;;;;;;9.40;2.60;;;7.00;75.80;;;;;;4998612;28;20050;-47
2022/01/20 04:18:13;;;;;;;13.30;2.45;;;7.00;75.80;;;;;;4986882;28;20035;-47
2022/01/20 04:20:40;;;;;;;7.82;2.35;;;6.90;75.90;;;;;;4999743;28;20053;-48
2022/01/20 04:23:07;;;;;;;7.43;2.72;;;6.90;76.00;;;;;;5003641;28;20095;-49
2022/01/20 04:25:34;;;;;;;10.98;2.90;;;6.90;76.10;;;;;;4991156;28;20097;-48
2022/01/20 04:28:01;;;;;;;7.50;2.17;;;6.80;76.00;;;;;;4986268;28;20129;-47
2022/01/20 04:30:29;;;;;;;11.45;3.10;;;6.80;76.10;;;;;;5003523;28;20050;-46
2022/01/20 04:33:01;;;;;;;9.32;3.55;;;6.80;76.30;;;;;;5007076;28;20049;-47
2022/01/20 04:35:28;;;;;;;12.90;2.47;;;6.80;76.50;;;;;;5000078;28;20082;-50
2022/01/20 04:37:58;;;;;;;8.18;3.05;;;6.80;76.80;;;;;;4995764;28;20069;-47
2022/01/20 04:40:25;;;;;;;9.88;3.50;;;6.80;76.90;;;;;;5001634;28;20050;-46
2022/01/20 04:42:53;;;;;;;8.77;2.38;;;6.80;77.00;;;;;;4996166;28;20098;-51
2022/01/20 04:45:28;;;;;;;10.82;2.75;;;6.80;77.10;;;;;;5000488;28;20043;-47
2022/01/20 04:59:05;;;;;;;3.85;1.00;;;6.90;77.10;;;;;;5009086;28;20409;-48
2022/01/20 05:01:32;;;;;;;2.03;0.82;;;7.00;77.10;;;;;;4994163;28;20162;-49
2022/01/20 05:04:15;;;;;;;6.00;1.95;;;7.00;77.10;;;;;;4989761;28;20250;-50
2022/01/20 05:07:05;;;;;;;9.77;2.00;;;7.00;76.80;;;;;;4989123;28;20132;-46
2022/01/20 05:09:33;;;;;;;6.32;2.38;;;7.00;76.70;;;;;;4976789;28;20181;-50
2022/01/20 05:12:04;;;;;;;9.48;1.85;;;6.90;76.80;;;;;;4997427;28;20052;-48
2022/01/20 05:14:31;;;;;;;4.13;1.40;;;6.90;76.90;;;;;;4984972;28;20523;-49
2022/01/20 05:16:59;;;;;;;6.93;1.65;;;6.90;77.00;;;;;;4996584;28;20041;-47
2022/01/20 05:19:30;;;;;;;7.38;2.80;;;6.90;77.20;;;;;;4986444;28;20137;-47
2022/01/20 05:21:58;;;;;;;6.70;2.23;;;6.90;77.50;;;;;;5003665;28;20042;-50
2022/01/20 05:24:30;;;;;;;10.32;2.75;;;6.90;77.50;;;;;;4994929;28;20061;-48
2022/01/20 05:26:58;;;;;;;6.45;2.45;;;6.90;77.70;;;;;;4987327;28;20689;-48
2022/01/20 05:29:27;;;;;;;8.00;2.67;;;6.90;77.80;;;;;;4981161;28;20081;-49
2022/01/20 05:31:55;;;;;;;9.27;3.03;;;6.90;78.00;;;;;;4996883;28;20120;-46
2022/01/20 05:34:23;;;;;;;12.00;2.85;;;6.90;78.10;;;;;;4994222;28;20565;-50
2022/01/20 05:36:50;;;;;;;9.98;2.53;;;6.90;78.20;;;;;;4994689;28;20042;-50
2022/01/20 05:39:17;;;;;;;10.35;2.70;;;6.90;78.40;;;;;;4978364;28;20042;-49
2022/01/20 05:41:46;;;;;;;9.80;3.70;;;6.90;78.60;;;;;;4984722;28;20531;-50
2022/01/20 05:44:41;;;;;;;;;;;6.90;78.60;;;;;;4987333;28;20394;-50
2022/01/20 05:47:11;;;;;;;11.90;2.42;;;7.00;79.30;;;;;;4981542;28;19922;-47
2022/01/20 05:50:08;;;;;;;11.20;3.03;;;7.00;78.60;;;;;;4974430;28;20679;-47
2022/01/20 05:52:41;;;;;;;13.63;2.78;;;6.90;78.60;;;;;;5004744;28;20058;-47
2022/01/20 05:55:20;;;;;;;8.73;2.83;;;6.90;78.80;;;;;;4981813;28;20046;-50
2022/01/20 05:57:47;;;;;;;9.43;3.13;;;6.90;79.30;;;;;;5007511;28;20529;-48
2022/01/20 06:00:23;;;;;;;14.93;3.40;;;6.90;79.10;;;;;;4984368;28;20046;-52
2022/01/20 06:05:42;;;;;;;9.20;3.28;;;6.90;79.50;;;;;;4979209;28;20046;-49
2022/01/20 06:08:12;;;;;;;11.48;3.17;;;6.90;79.50;;;;;;4984391;28;20130;-49
2022/01/20 06:10:40;;;;;;;7.40;2.90;;;6.90;79.70;;;;;;4985403;28;20057;-49
2022/01/20 06:13:12;;;;;;;12.38;3.28;;;6.80;79.70;;;;;;4993024;28;20100;-46
2022/01/20 06:15:39;;;;;;;6.30;2.25;;;6.80;79.80;;;;;;4989227;28;20057;-46
2022/01/20 06:18:09;;;;;;;6.75;2.95;;;6.90;79.90;;;;;;4986956;28;20045;-50
2022/01/20 06:20:40;;;;;;;8.07;2.70;;;6.80;79.90;;;;;;4996085;28;20046;-45
2022/01/20 06:23:08;;;;;;;7.28;2.75;;;6.80;79.80;;;;;;4998114;28;20045;-47
2022/01/20 06:25:36;;;;;;;6.80;1.90;;;6.90;79.90;;;;;;4987085;28;20043;-46
2022/01/20 06:28:04;;;;;;;6.63;2.22;;;6.80;79.90;;;;;;4986248;28;20046;-47
2022/01/20 06:30:32;;;;;;;6.47;2.00;;;6.80;79.90;;;;;;4982449;28;20101;-46
2022/01/20 06:33:01;;;;;;;7.50;2.80;;;6.80;79.90;;;;;;4986757;28;20843;-47
2022/01/20 06:35:36;;;;;;;8.23;2.45;;;6.80;79.80;;;;;;4994574;28;20042;-50
2022/01/20 06:38:04;;;;;;;8.38;2.60;;;6.80;79.90;;;;;;4977980;28;20051;-50
2022/01/20 06:40:32;;;;;;;9.35;2.47;;;6.80;79.90;;;;;;4979325;28;20046;-46
2022/01/20 06:43:00;;;;;;;5.40;2.30;;;6.80;79.90;;;;;;4982338;28;20069;-50
2022/01/20 06:45:27;;;;;;;8.05;2.47;;;6.80;80.00;;;;;;4995211;28;20046;-46
2022/01/20 06:48:00;;;;;;;9.88;2.40;;;6.80;80.10;;;;;;4991585;28;20058;-49
2022/01/20 06:50:29;;;;;;;6.47;2.13;;;6.80;79.90;;;;;;4991917;28;20051;-48
2022/01/20 06:52:56;;;;;;;7.15;1.45;;;6.80;79.70;;;;;;4998601;28;20057;-47
2022/01/20 06:55:23;;;;;;;4.40;1.67;;;6.80;79.60;;;;;;5006136;28;20045;-47
2022/01/20 06:57:50;;;;;;;3.60;1.13;;;6.80;79.50;;;;;;4988347;28;20445;-49
2022/01/20 07:00:23;;;;;;;5.60;1.85;;;6.80;79.50;;;;;;4995031;28;20046;-48
2022/01/20 07:02:50;;;;;;;6.65;2.00;;;6.70;79.30;;;;;;4986760;28;20042;-47
2022/01/20 07:05:20;;;;;;;2.95;1.27;;;6.70;79.30;;;;;;4984214;28;20049;-46
2022/01/20 07:07:47;;;;;;;9.00;1.88;;;6.70;79.20;;;;;;4986733;28;20045;-46
2022/01/20 07:10:22;;;;;;;5.90;1.20;;;6.70;79.20;;;;;;4997366;28;20078;-47
2022/01/20 07:12:52;;;;;;;4.80;1.25;;;6.70;79.20;;;;;;5006634;28;20118;-48
2022/01/20 07:15:19;;;;;;;8.50;1.90;;;6.70;79.40;;;;;;4990249;28;20050;-46
2022/01/20 07:17:47;;;;;;;4.03;1.40;;;6.70;79.50;;;;;;4990336;28;20585;-46
2022/01/20 07:20:16;;;;;;;7.40;2.20;;;6.60;79.40;;;;;;5002716;28;20125;-48
2022/01/20 07:22:53;;;;;;;9.68;1.98;;;6.70;79.50;;;;;;5000607;28;20046;-48
2022/01/20 07:25:20;;;;;;;6.20;1.40;;;6.70;79.60;;;;;;4988018;28;20137;-47
2022/01/20 07:28:07;;;;;;;6.93;2.08;;;6.60;79.50;;;;;;4988905;28;20050;-48
2022/01/20 07:30:39;;;;;;;4.90;1.98;;;6.60;79.30;;;;;;4999678;28;20107;-44
2022/01/20 07:33:06;;;;;;;5.43;1.80;;;6.60;79.20;;;;;;4989859;28;20039;-45
2022/01/20 07:35:36;;;;;;;7.63;1.73;;;6.60;79.30;;;;;;4986978;28;20104;-45
2022/01/20 07:38:06;;;;;;;9.73;2.25;;;6.60;79.40;;;;;;4986937;28;20035;-49
2022/01/20 07:40:35;;;;;;;7.82;2.05;;;6.60;79.40;;;;;;4998563;28;20077;-47
2022/01/20 07:43:03;;;;;;;13.35;1.88;;;6.60;79.50;;;;;;5006552;28;20077;-45
2022/01/20 07:45:42;;;;;;;6.88;2.30;;;6.60;79.50;;;;;;4987992;28;20131;-48
2022/01/20 07:48:18;;;;;;;9.13;2.00;;;6.60;79.50;;;;;;4997275;28;20064;-47
2022/01/20 07:50:48;;;;;;;7.80;2.03;;;6.60;79.50;;;;;;4967556;28;20054;-45
2022/01/20 07:53:18;;;;;;;13.27;2.55;;;6.60;79.50;;;;;;4984014;28;20388;-45
2022/01/20 07:55:45;;;;;;;12.30;2.85;;;6.60;79.30;;;;;;4984920;28;20082;-47
2022/01/20 07:58:13;;;;;;;15.23;3.15;;;6.60;79.20;;;;;;4994807;28;20474;-46
2022/01/20 08:00:42;;;;;;;9.93;2.65;;;6.60;78.90;;;;;;4982623;28;20128;-45
2022/01/20 08:03:09;;;;;;;9.35;2.75;;;6.50;78.70;;;;;;4983696;28;20137;-46
2022/01/20 08:05:46;;;;;;;11.27;2.70;;;6.50;79.20;;;;;;4994446;28;20125;-48
2022/01/20 08:08:16;;;;;;;7.75;2.42;;;6.50;78.40;;;;;;4993787;28;20099;-47
2022/01/20 08:10:51;;;;;;;12.35;3.00;;;6.50;78.40;;;;;;4986292;28;20034;-45
2022/01/20 08:13:19;;;;;;;8.70;1.98;;;6.40;78.40;;;;;;5000444;28;20481;-46
2022/01/20 08:15:46;;;;;;;10.70;2.97;;;6.40;78.50;;;;;;4985798;28;20576;-45
2022/01/20 08:18:23;;;;;;;12.07;2.33;;;6.40;78.70;;;;;;4986562;28;20058;-49
2022/01/20 08:20:50;;;;;;;11.15;2.53;;;6.40;78.90;;;;;;4987760;28;20049;-47
2022/01/20 08:23:17;;;;;;;12.23;2.50;;;6.40;79.10;;;;;;4988241;28;20062;-47
2022/01/20 08:25:44;;;;;;;11.40;2.40;;;6.40;79.30;;;;;;4985725;28;20124;-46
2022/01/20 08:28:12;;;;;;;14.02;3.30;;;6.40;79.50;;;;;;4980436;28;20047;-49
2022/01/20 08:30:41;;;;;;;12.63;3.25;;;6.40;79.60;;;;;;4983997;28;20046;-46
2022/01/20 08:33:08;;;;;;;7.38;2.83;;;6.50;79.50;;;;;;4983421;28;20038;-46
2022/01/20 08:35:47;;;;;;;11.15;3.22;;;6.40;79.10;;;;;;4978151;28;20042;-48
2022/01/20 08:38:19;;;;;;;9.00;2.58;;;6.50;79.10;;;;;;5000838;28;20108;-45
2022/01/20 08:40:46;;;;;;;16.67;3.22;;;6.50;79.20;;;;;;4990746;28;20034;-46
2022/01/20 08:43:13;;;;;;;8.85;2.92;;;6.50;79.20;;;;;;4988725;28;20535;-47
2022/01/20 08:45:43;;;;;;;8.20;2.35;;;6.50;79.20;;;;;;4982987;28;20049;-50
2022/01/20 08:48:13;;;;;;;12.57;2.70;;;6.60;79.40;;;;;;4976727;28;20046;-45
2022/01/20 08:51:13;;;;;;;10.77;2.65;;;6.60;79.50;;;;;;4977005;28;20046;-46
2022/01/20 08:53:51;;;;;;;10.07;2.97;;;6.60;79.30;;;;;;4987558;28;20052;-49
2022/01/20 08:56:21;;;;;;;9.75;2.55;;;6.70;79.30;;;;;;4989751;28;20046;-45
2022/01/20 08:58:49;;;;;;;13.98;2.88;;;6.70;79.90;;;;;;4980349;28;20108;-47
2022/01/20 09:01:16;;;;;;;11.93;3.58;;;6.70;79.00;;;;;;4986761;28;20042;-48
2022/01/20 09:03:43;;;;;;;13.38;3.10;;;6.80;78.80;;;;;;4995791;28;20049;-45
2022/01/20 09:06:10;;;;;;;12.05;2.30;;;6.80;78.70;;;;;;4994802;28;20046;-47
2022/01/20 09:08:44;;;;;;;12.57;3.40;;;6.80;78.70;;;;;;4987126;28;20142;-47
2022/01/20 09:11:19;;;;;;;6.50;2.65;;;6.80;78.80;;;;;;4988709;28;20073;-50
2022/01/20 09:16:36;;;;;;;9.82;2.60;;;6.90;79.10;;;;;;4983759;28;20422;-48
2022/01/20 09:19:13;;;;;;;10.70;3.17;;;7.00;78.90;;;;;;4989345;28;20597;-50
2022/01/20 09:21:50;;;;;;;11.30;2.78;;;7.00;78.80;;;;;;4998353;28;20449;-50
2022/01/20 09:24:17;;;;;;;12.50;3.13;;;7.10;78.50;;;;;;4994316;28;20440;-50
2022/01/20 09:26:44;;;;;;;12.43;2.80;;;7.10;78.40;;;;;;4984150;28;20042;-49
2022/01/20 09:29:10;;;;;;;13.45;3.13;;;7.10;78.20;;;;;;4987171;28;20137;-50
2022/01/20 09:31:39;;;;;;;14.27;3.38;;;7.20;77.90;;;;;;4989486;28;20054;-49
2022/01/20 09:34:09;;;;;;;11.82;3.08;;;7.20;77.50;;;;;;4985414;28;20057;-50
2022/01/20 09:36:39;;;;;;;12.93;3.00;;;7.20;77.00;;;;;;4985463;28;20042;-46
2022/01/20 09:39:05;;;;;;;10.23;2.58;;;7.20;77.00;;;;;;4996190;28;20041;-45
2022/01/20 09:41:45;;;;;;;8.52;2.75;;;7.30;76.80;;;;;;4987998;28;20133;-53
2022/01/20 09:44:13;;;;;;;9.88;2.55;;;7.30;76.60;;;;;;4989498;28;20050;-49
2022/01/20 09:46:41;;;;;;;15.30;2.15;;;7.30;76.50;;;;;;4988863;28;20031;-48
2022/01/20 09:49:31;;;;;;;8.82;2.30;;;7.30;76.50;;;;;;5006772;22;20046;-43
2022/01/20 09:52:02;;;;;;;9.23;2.30;;;7.40;76.10;;;;;;4988359;28;20587;-44
2022/01/20 09:54:38;;;;;;;10.55;2.55;;;7.40;76.00;;;;;;4980144;28;20052;-43
2022/01/20 09:57:14;;;;;;;10.93;2.72;;;7.40;75.90;;;;;;4996603;28;20109;-43
2022/01/20 09:59:41;;;;;;;11.35;3.42;;;7.40;75.70;;;;;;4992452;28;20062;-44
2022/01/20 10:02:17;;;;;;;12.35;2.95;;;7.40;75.70;;;;;;4984613;28;20138;-48
2022/01/20 10:04:45;;;;;;;8.25;2.97;;;7.40;75.60;;;;;;4970519;28;20483;-45
2022/01/20 10:07:19;;;;;;;11.30;2.80;;;7.50;75.60;;;;;;4974814;28;20105;-45
2022/01/20 10:09:54;;;;;;;10.40;3.20;;;7.50;75.50;;;;;;4965701;28;20136;-44
2022/01/20 10:12:30;;;;;;;9.50;3.53;;;7.50;75.50;;;;;;4961547;28;20577;-46
2022/01/20 10:15:24;;;;;;;12.43;2.55;;;7.50;75.20;;;;;;4964858;28;20545;-44
2022/01/20 10:18:15;;;;;;;13.88;2.47;;;7.60;74.70;;;;;;4965868;28;20430;-44
2022/01/20 10:21:01;;;;;;;17.10;2.95;;;7.60;74.30;;;;;;4970988;28;20038;-46
2022/01/20 10:23:48;;;;;;;7.63;3.03;;;7.60;74.50;;;;;;4973841;28;20042;-45
2022/01/20 10:26:41;;;;;;;7.13;2.53;;;7.60;74.50;;;;;;4978556;28;20425;-44
2022/01/20 10:29:13;;;;;;;10.35;2.70;;;7.70;74.60;;;;;;4972764;28;20043;-43
2022/01/20 10:31:51;;;;;;;7.32;2.42;;;7.70;74.20;;;;;;4975962;28;20051;-44
2022/01/20 10:34:32;;;;;;;8.77;2.78;;;7.70;74.20;;;;;;4965926;28;20427;-44
2022/01/20 10:37:17;;;;;;;12.13;2.90;;;7.80;73.70;;;;;;4963380;28;20141;-44
2022/01/20 10:40:07;;;;;;;13.48;2.97;;;7.80;73.80;;;;;;4959342;28;20086;-46
2022/01/20 10:42:39;;;;;;;8.80;2.78;;;7.80;73.50;;;;;;4965308;28;20055;-43
2022/01/20 10:45:07;;;;;;;14.68;2.92;;;7.80;73.60;;;;;;4962575;28;20121;-43
2022/01/20 10:47:36;;;;;;;10.90;3.10;;;7.90;73.60;;;;;;4976218;28;20051;-44
2022/01/20 10:50:14;;;;;;;11.18;2.70;;;7.90;73.50;;;;;;4968823;28;20042;-44
2022/01/20 10:52:52;;;;;;;9.38;3.20;;;7.90;72.80;;;;;;4968162;28;20046;-43
2022/01/20 10:55:28;;;;;;;11.07;2.70;;;7.90;72.90;;;;;;4973055;28;20051;-43
2022/01/20 10:58:21;;;;;;;13.50;4.05;;;8.00;72.70;;;;;;4957173;28;20082;-44
2022/01/20 11:00:52;;;;;;;7.18;2.15;;;8.00;70.50;;;;;;4957763;28;20047;-44
2022/01/20 11:03:21;;;;;;;;;;;8.00;72.00;;;;;;4970754;28;20477;-43
2022/01/20 11:05:51;;;;;;;11.45;3.60;;;8.10;70.30;;;;;;4973200;28;19992;-48
2022/01/20 11:08:43;;;;;;;11.75;3.30;;;8.00;71.30;;;;;;4964185;28;20085;-49
2022/01/20 11:11:15;;;;;;;11.30;4.10;;;8.00;70.40;;;;;;4966230;28;20047;-49
2022/01/20 11:14:04;;;;;;;10.18;2.42;;;7.90;70.70;;;;;;4961275;28;20058;-49
2022/01/20 11:16:40;;;;;;;7.75;2.70;;;7.90;70.00;;;;;;4972918;28;20562;-52
2022/01/20 11:19:19;;;;;;;5.70;1.58;;;7.90;70.00;;;;;;4972204;28;20038;-52
2022/01/20 11:21:46;;;;;;;7.53;1.67;;;7.80;69.90;;;;;;4967388;28;20108;-51
2022/01/20 11:24:23;;;;;;;6.93;2.35;;;7.80;70.30;;;;;;4965954;28;20049;-50
2022/01/20 11:27:07;;;;;;;8.93;2.35;;;7.80;69.90;;;;;;4971508;28;20042;-52
2022/01/20 11:29:55;;;;;;;6.75;1.65;;;7.70;70.70;;;;;;4958137;28;20053;-51
2022/01/20 11:32:45;;;;;;;9.25;2.05;;;7.70;70.80;;;;;;4972931;28;20967;-49
2022/01/20 11:35:21;;;;;;;4.82;1.83;;;7.80;71.30;;;;;;4970586;28;20086;-49
2022/01/20 11:37:57;;;;;;;6.88;1.48;;;7.80;71.30;;;;;;4967826;28;20399;-51
2022/01/20 11:40:24;;;;;;;13.40;2.63;;;7.80;70.80;;;;;;4965613;28;20047;-52
2022/01/20 11:43:08;;;;;;;8.98;2.20;;;7.90;71.20;;;;;;4967212;28;20038;-49
2022/01/20 11:45:38;;;;;;;9.20;2.38;;;8.00;70.30;;;;;;4966816;28;20101;-52
2022/01/20 11:48:23;;;;;;;13.18;2.42;;;8.00;70.50;;;;;;4965409;28;20534;-51
2022/01/20 11:51:08;;;;;;;3.75;1.90;;;8.00;68.60;;;;;;4969608;28;20126;-52
2022/01/20 11:53:41;;;;;;;12.40;2.50;;;8.10;68.30;;;;;;4985917;28;20050;-51
2022/01/20 11:56:09;;;;;;;10.60;2.75;;;8.10;69.40;;;;;;4980580;28;20042;-49
2022/01/20 11:58:36;;;;;;;7.18;2.17;;;8.10;68.90;;;;;;4968985;28;20106;-52
2022/01/20 12:01:09;;;;;;;9.68;2.63;;;8.10;68.90;;;;;;4974506;28;20039;-52
2022/01/20 12:03:48;;;;;;;9.90;2.67;;;8.10;69.10;;;;;;4970203;28;20051;-49
2022/01/20 12:06:23;;;;;;;11.73;2.83;;;8.20;68.60;;;;;;4958689;28;20047;-51
2022/01/20 12:09:00;;;;;;;6.22;2.85;;;8.20;69.00;;;;;;4965502;28;20050;-53
2022/01/20 12:11:35;;;;;;;7.95;2.63;;;8.20;67.90;;;;;;4977709;28;20495;-50
2022/01/20 12:14:03;;;;;;;10.23;2.97;;;8.30;67.60;;;;;;4967756;28;20055;-51
2022/01/20 12:16:30;;;;;;;7.55;1.75;;;8.30;67.40;;;;;;4973158;28;20515;-49
2022/01/20 12:18:58;;;;;;;10.55;2.10;;;8.30;67.60;;;;;;4977523;28;20058;-49
2022/01/20 12:21:27;;;;;;;8.60;1.80;;;8.30;66.10;;;;;;4969020;28;20051;-52
2022/01/20 12:23:54;;;;;;;5.72;1.90;;;8.30;66.00;;;;;;4971046;28;20042;-52
2022/01/20 12:26:21;;;;;;;7.07;2.38;;;8.30;64.90;;;;;;4970018;28;20039;-53
2022/01/20 12:29:09;;;;;;;5.82;2.08;;;8.20;64.90;;;;;;4975273;28;20888;-53
2022/01/20 12:31:52;;;;;;;8.27;2.20;;;8.20;64.40;;;;;;4970492;28;20050;-52
2022/01/20 12:34:19;;;;;;;8.00;2.40;;;8.20;64.70;;;;;;4964830;28;20541;-52
2022/01/20 12:36:54;;;;;;;8.10;2.22;;;8.10;64.90;;;;;;4960654;28;20466;-52
2022/01/20 12:39:32;;;;;;;8.30;1.83;;;8.10;63.80;;;;;;4968224;28;20057;-50
2022/01/20 12:42:02;;;;;;;7.63;1.95;;;8.00;64.80;;;;;;4962874;28;20038;-52
2022/01/20 12:44:48;;;;;;;8.18;1.88;;;8.00;65.00;;;;;;4962253;28;20051;-52
2022/01/20 12:47:17;;;;;;;5.93;1.95;;;8.00;64.20;;;;;;4965077;28;20062;-53
2022/01/20 12:50:00;;;;;;;8.45;1.80;;;7.90;64.30;;;;;;4971951;28;20050;-52
2022/01/20 12:52:27;;;;;;;11.10;2.58;;;8.00;63.30;;;;;;4965504;28;20051;-51
2022/01/20 12:54:54;;;;;;;16.13;3.45;;;7.90;64.30;;;;;;4979446;28;20046;-50
2022/01/20 12:57:21;;;;;;;10.82;2.72;;;7.90;65.10;;;;;;4982676;28;20046;-52
2022/01/20 12:59:48;;;;;;;6.40;2.45;;;7.90;64.70;;;;;;4986260;28;20129;-51
2022/01/20 13:02:27;;;;;;;7.25;2.17;;;7.90;64.50;;;;;;4978795;28;20039;-51
2022/01/20 13:05:02;;;;;;;7.40;2.00;;;7.90;64.10;;;;;;4976892;28;20038;-50
2022/01/20 13:07:32;;;;;;;9.55;2.13;;;7.90;64.20;;;;;;4968425;28;20046;-53
2022/01/20 13:10:22;;;;;;;10.93;2.22;;;7.90;64.60;;;;;;4965347;28;20051;-52
2022/01/20 13:12:51;;;;;;;4.90;1.58;;;8.00;64.90;;;;;;4962415;28;20572;-52
2022/01/20 13:15:17;;;;;;;10.57;3.00;;;8.00;65.50;;;;;;4973730;28;20047;-53
2022/01/20 13:17:46;;;;;;;6.78;1.85;;;8.10;65.10;;;;;;4967530;28;20427;-53
2022/01/20 13:20:22;;;;;;;8.70;2.03;;;8.20;64.20;;;;;;4961857;28;20046;-51
2022/01/20 13:23:08;;;;;;;9.80;2.22;;;8.30;63.60;;;;;;4968858;28;20577;-51
2022/01/20 13:25:39;;;;;;;9.90;2.53;;;8.30;62.30;;;;;;4969782;28;20098;-51
2022/01/20 13:28:09;;;;;;;7.28;1.70;;;8.40;64.20;;;;;;4962223;28;20047;-52
2022/01/20 13:30:50;;;;;;;7.47;1.67;;;8.40;61.90;;;;;;4963425;28;20074;-50
2022/01/20 13:33:23;;;;;;;5.75;1.52;;;8.40;61.30;;;;;;4974615;28;20530;-49
2022/01/20 13:36:00;;;;;;;7.55;1.88;;;8.40;61.00;;;;;;4983198;28;20046;-53
2022/01/20 13:38:38;;;;;;;6.53;1.38;;;8.40;61.00;;;;;;4990416;28;20104;-53
2022/01/20 13:41:13;;;;;;;5.78;1.75;;;8.40;59.20;;;;;;4974647;28;20449;-52
2022/01/20 13:46:46;;;;;;;7.32;2.15;;;8.40;60.60;;;;;;4961791;28;20043;-53
2022/01/20 13:49:24;;;;;;;5.75;1.48;;;8.40;60.60;;;;;;4960994;28;20067;-53
2022/01/20 13:52:06;;;;;;;5.85;0.98;;;8.30;60.10;;;;;;4969526;28;20054;-52
2022/01/20 13:54:41;;;;;;;3.13;1.33;;;8.30;60.20;;;;;;4962857;28;20055;-49
2022/01/20 13:57:36;;;;;;;3.53;1.05;;;8.30;60.90;;;;;;4973085;28;20122;-49
2022/01/20 14:00:04;;;;;;;5.32;1.58;;;8.40;60.80;;;;;;4961759;28;20047;-53
2022/01/20 14:02:38;;;;;;;7.18;1.60;;;8.40;61.40;;;;;;4974331;28;20578;-51
2022/01/20 14:05:05;;;;;;;9.57;1.77;;;8.40;61.20;;;;;;4977474;28;20578;-53
2022/01/20 14:07:33;;;;;;;3.80;1.25;;;8.50;60.80;;;;;;4970291;28;20098;-53
2022/01/20 14:09:59;;;;;;;2.53;1.38;;;8.50;60.10;;;;;;4963932;28;20059;-53
2022/01/20 14:12:26;;;;;;;8.52;2.15;;;8.60;61.10;;;;;;4978397;28;20289;-50
2022/01/20 14:14:53;;;;;;;4.03;1.40;;;8.60;60.60;;;;;;4952140;28;20051;-50
2022/01/20 14:17:21;;;;;;;3.58;1.15;;;8.70;60.10;;;;;;4977623;28;20078;-49
2022/01/20 14:19:56;;;;;;;5.03;1.80;;;8.70;60.40;;;;;;4976745;28;20050;-50
2022/01/20 14:22:23;;;;;;;6.68;1.77;;;8.60;61.00;;;;;;4982237;28;20093;-53
2022/01/20 14:24:50;;;;;;;9.75;2.15;;;8.60;60.60;;;;;;4965673;28;20050;-51
2022/01/20 14:27:18;;;;;;;5.45;1.98;;;8.50;61.40;;;;;;4942803;28;20055;-52
2022/01/20 14:29:47;;;;;;;5.90;1.35;;;8.40;62.00;;;;;;4962171;28;20117;-53